Time;durP1;ratioP1;P1;durP2;ratioP2;P2;SDS_P1;SDS_P2;PMS_P1;PMS_P2;Temp;Humidity;BMP_temperature;BMP_pressure;BME280_temperature;BME280_humidity;BME280_pressure;Samples;Min_cycle;Max_cycle;Signal;HPM_P1;HPM_P2
2021/12/06 00:01:58;;;;;;;10.50;5.67;;;1.80;99.90;;;2.60;100.00;97490.19;5066499;28;20800;-79
2021/12/06 00:04:32;;;;;;;8.53;5.27;;;1.80;99.90;;;2.60;100.00;97496.16;5067007;28;20474;-80
2021/12/06 00:07:06;;;;;;;10.77;4.30;;;1.80;99.90;;;2.58;100.00;97497.25;5063375;28;20455;-79
2021/12/06 00:09:36;;;;;;;6.10;4.10;;;1.80;99.90;;;2.62;100.00;97503.75;5067560;28;20514;-79
2021/12/06 00:12:06;;;;;;;6.17;3.90;;;1.80;99.90;;;2.63;100.00;97502.78;5062277;28;21010;-79
2021/12/06 00:14:40;;;;;;;11.10;5.27;;;1.80;99.90;;;2.67;100.00;97497.19;5064589;28;20472;-79
2021/12/06 00:17:11;;;;;;;12.00;5.00;;;1.90;99.90;;;2.66;100.00;97505.06;5059929;28;20686;-79
2021/12/06 00:19:42;;;;;;;15.60;4.87;;;1.80;99.90;;;2.55;100.00;97500.97;5066465;28;20456;-79
2021/12/06 00:22:22;;;;;;;9.10;4.77;;;1.80;99.90;;;2.49;100.00;97489.47;5063822;28;20468;-79
2021/12/06 00:24:51;;;;;;;6.50;4.03;;;1.70;99.90;;;2.56;100.00;97494.03;5070524;28;20935;-79
2021/12/06 00:27:20;;;;;;;5.40;3.90;;;1.90;99.90;;;2.58;100.00;97499.84;5069500;28;20521;-79
2021/12/06 00:29:49;;;;;;;9.97;4.73;;;1.80;99.90;;;2.57;100.00;97500.81;5066580;28;20464;-79
2021/12/06 00:32:18;;;;;;;8.50;5.10;;;1.80;99.90;;;2.53;100.00;97514.00;5063119;28;20548;-79
2021/12/06 00:34:47;;;;;;;6.90;4.33;;;1.80;99.90;;;2.55;100.00;97513.84;5065575;28;20493;-79
2021/12/06 00:37:19;;;;;;;6.93;4.20;;;1.80;99.90;;;2.62;100.00;97519.22;5063155;28;20878;-79
2021/12/06 00:39:53;;;;;;;8.57;4.27;;;2.00;99.90;;;2.62;100.00;97519.22;5059325;28;20506;-79
2021/12/06 00:42:25;;;;;;;7.03;4.60;;;1.90;99.90;;;2.63;100.00;97526.00;5061323;28;20456;-80
2021/12/06 00:44:54;;;;;;;7.80;4.73;;;1.90;99.90;;;2.64;100.00;97520.69;5062573;28;20464;-79
2021/12/06 00:47:22;;;;;;;5.73;4.10;;;2.00;99.90;;;2.61;100.00;97523.56;5066856;28;20522;-78
2021/12/06 00:49:51;;;;;;;4.80;3.83;;;1.90;99.90;;;2.62;100.00;97525.19;5067720;28;20467;-79
2021/12/06 00:52:23;;;;;;;5.03;3.83;;;1.90;99.90;;;2.63;100.00;97531.19;5065536;28;20491;-79
2021/12/06 00:54:52;;;;;;;5.73;3.93;;;1.90;99.90;;;2.62;100.00;97535.53;5068366;28;20459;-79
2021/12/06 00:57:21;;;;;;;7.40;4.30;;;1.90;99.90;;;2.63;100.00;97536.34;5063510;28;20459;-79
2021/12/06 00:59:50;;;;;;;7.33;4.50;;;1.90;99.90;;;2.59;100.00;97540.16;5064792;28;20959;-79
2021/12/06 01:02:19;;;;;;;6.47;4.03;;;1.90;99.90;;;2.53;100.00;97547.53;5068944;28;20855;-78
2021/12/06 01:04:49;;;;;;;7.63;4.50;;;1.80;99.90;;;2.49;100.00;97551.41;5069389;28;20445;-79
2021/12/06 01:07:19;;;;;;;6.60;3.90;;;1.70;99.90;;;2.54;100.00;97546.59;5069126;28;20535;-79
2021/12/06 01:09:49;;;;;;;8.90;4.20;;;1.80;99.90;;;2.55;100.00;97547.41;5067536;28;20456;-79
2021/12/06 01:12:17;;;;;;;8.07;4.13;;;1.80;99.90;;;2.58;100.00;97547.09;5069647;28;20851;-79
2021/12/06 01:14:46;;;;;;;7.37;4.93;;;1.80;99.90;;;2.59;100.00;97547.91;5071225;28;20461;-79
2021/12/06 01:17:15;;;;;;;6.57;4.40;;;1.80;99.90;;;2.57;100.00;97552.44;5057991;28;20454;-79
2021/12/06 01:19:43;;;;;;;8.33;4.50;;;1.80;99.90;;;2.56;100.00;97550.78;5062491;28;20468;-79
2021/12/06 01:22:23;;;;;;;11.73;4.27;;;1.70;99.90;;;2.56;100.00;97553.38;5065365;28;20885;-79
2021/12/06 01:24:57;;;;;;;8.13;4.67;;;1.70;99.90;;;2.52;100.00;97561.41;5065070;28;20522;-79
2021/12/06 01:41:22;;;;;;;7.40;3.73;;;1.70;99.90;;;2.48;100.00;97574.75;5065639;28;20978;-79
2021/12/06 01:44:07;;;;;;;10.40;3.53;;;1.70;99.90;;;2.48;100.00;97588.47;5068178;28;20487;-79
2021/12/06 01:46:38;;;;;;;12.93;3.73;;;1.70;99.90;;;2.42;100.00;97583.91;5062740;28;20513;-79
2021/12/06 01:49:08;;;;;;;7.23;3.50;;;1.60;99.90;;;2.40;100.00;97587.56;5062687;28;21058;-79
2021/12/06 01:51:37;;;;;;;23.83;4.17;;;1.60;99.90;;;2.39;100.00;97585.97;5058916;28;20520;-79
2021/12/06 01:54:08;;;;;;;10.80;4.33;;;1.60;99.90;;;2.41;100.00;97592.59;5061556;28;20467;-79
2021/12/06 01:56:38;;;;;;;8.90;4.00;;;1.60;99.90;;;2.34;100.00;97591.56;5065338;28;20970;-79
2021/12/06 01:59:08;;;;;;;5.30;3.73;;;1.50;99.90;;;2.37;100.00;97598.19;5070856;28;20456;-79
2021/12/06 02:01:37;;;;;;;5.63;4.10;;;1.50;99.90;;;2.34;100.00;97601.88;5068041;28;20490;-79
2021/12/06 02:04:06;;;;;;;6.50;4.43;;;1.50;99.90;;;2.33;100.00;97602.81;5068037;28;20481;-79
2021/12/06 02:06:36;;;;;;;14.00;3.80;;;1.60;99.90;;;2.32;100.00;97601.22;5060408;28;20467;-79
2021/12/06 02:09:08;;;;;;;6.40;3.73;;;1.70;99.90;;;2.32;100.00;97598.66;5066895;28;20529;-79
2021/12/06 02:11:39;;;;;;;6.20;4.20;;;1.60;99.90;;;2.33;100.00;97599.44;5068567;28;20462;-79
2021/12/06 02:14:24;;;;;;;13.23;3.97;;;1.60;99.90;;;2.33;100.00;97602.00;5069366;28;20464;-79
2021/12/06 02:17:05;;;;;;;7.13;4.40;;;1.80;99.90;;;2.31;100.00;97609.09;5062851;28;20518;-79
2021/12/06 02:19:40;;;;;;;28.13;5.90;;;1.80;99.90;;;2.32;100.00;97605.56;5070351;28;20461;-79
2021/12/06 02:22:15;;;;;;;6.37;4.40;;;1.60;99.90;;;2.30;100.00;97597.97;5064399;28;21015;-79
2021/12/06 02:24:44;;;;;;;6.90;4.40;;;1.50;99.90;;;2.31;100.00;97597.03;5067391;28;20458;-79
2021/12/06 02:27:15;;;;;;;5.17;3.47;;;1.50;99.90;;;2.32;100.00;97601.22;5070789;28;20458;-79
2021/12/06 02:29:47;;;;;;;9.70;4.33;;;1.50;99.90;;;2.33;100.00;97597.66;5071939;28;20988;-79
2021/12/06 02:32:16;;;;;;;24.23;4.87;;;1.60;99.90;;;2.34;100.00;97601.06;5068659;28;20538;-79
2021/12/06 02:34:49;;;;;;;15.13;4.43;;;1.60;99.90;;;2.36;100.00;97612.84;5072830;28;20468;-79
2021/12/06 02:37:24;;;;;;;20.90;4.80;;;1.60;99.90;;;2.33;100.00;97612.31;5064598;28;20464;-79
2021/12/06 02:40:06;;;;;;;16.60;4.63;;;1.70;99.90;;;2.35;100.00;97613.00;5069017;28;20485;-80
2021/12/06 02:42:36;;;;;;;37.10;5.50;;;1.60;99.90;;;2.35;100.00;97616.41;5071119;28;20482;-79
2021/12/06 02:45:06;;;;;;;34.87;6.00;;;1.60;99.90;;;2.33;100.00;97618.31;5059551;28;20512;-79
2021/12/06 02:47:35;;;;;;;64.53;5.63;;;1.70;99.90;;;2.32;100.00;97608.16;5069432;28;20462;-79
2021/12/06 02:50:08;;;;;;;58.07;6.23;;;1.50;99.90;;;2.33;100.00;97613.16;5059251;28;20514;-79
2021/12/06 02:52:40;;;;;;;47.63;6.73;;;1.60;99.90;;;2.32;100.00;97615.88;5068869;28;20484;-79
2021/12/06 02:55:28;;;;;;;24.80;5.47;;;1.70;99.90;;;2.33;100.00;97622.66;5066678;28;20467;-79
2021/12/06 02:57:58;;;;;;;43.00;6.27;;;1.80;99.90;;;2.31;100.00;97635.72;5069722;28;20458;-79
2021/12/06 03:00:28;;;;;;;19.73;5.00;;;1.70;99.90;;;2.31;100.00;97640.88;5069298;28;20529;-79
2021/12/06 03:02:56;;;;;;;59.73;5.60;;;1.80;99.90;;;2.31;100.00;97651.19;5064118;28;20436;-79
2021/12/06 03:05:25;;;;;;;47.13;5.03;;;1.90;99.90;;;2.30;100.00;97651.31;5062077;28;20458;-79
2021/12/06 03:07:59;;;;;;;82.73;5.43;;;1.90;99.90;;;2.25;100.00;97656.94;5069586;28;20472;-79
2021/12/06 03:10:28;;;;;;;23.73;5.00;;;1.90;99.90;;;2.24;100.00;97654.47;5063080;28;20877;-79
2021/12/06 03:12:58;;;;;;;68.57;6.50;;;1.80;99.90;;;2.22;100.00;97651.25;5069639;28;20967;-79
2021/12/06 03:15:27;;;;;;;32.00;6.37;;;1.80;99.90;;;2.21;100.00;97660.75;5058375;28;20475;-79
2021/12/06 03:17:57;;;;;;;34.37;5.80;;;1.70;99.90;;;2.25;100.00;97666.44;5066086;28;20525;-79
2021/12/06 03:20:25;;;;;;;40.00;6.13;;;1.60;99.90;;;2.25;100.00;97663.84;5065750;28;20966;-79
2021/12/06 03:22:55;;;;;;;50.83;6.50;;;1.60;99.90;;;2.24;100.00;97663.03;5061796;28;20471;-80
2021/12/06 03:25:24;;;;;;;38.90;5.30;;;1.70;99.90;;;2.24;100.00;97670.78;5068223;28;20455;-79
2021/12/06 03:27:52;;;;;;;45.77;5.50;;;1.70;99.90;;;2.24;100.00;97673.34;5065377;28;20449;-79
2021/12/06 03:30:21;;;;;;;27.40;5.67;;;1.60;99.90;;;2.25;100.00;97672.41;5066346;28;20453;-79
2021/12/06 03:32:50;;;;;;;36.20;4.97;;;1.60;99.90;;;2.20;100.00;97679.75;5063181;28;20549;-79
2021/12/06 03:35:18;;;;;;;6.30;3.67;;;1.60;99.90;;;2.22;100.00;97677.03;5071011;28;20484;-79
2021/12/06 03:37:47;;;;;;;31.60;5.50;;;1.70;99.90;;;2.22;100.00;97688.13;5059281;28;20504;-80
2021/12/06 03:40:17;;;;;;;23.37;4.47;;;1.70;99.90;;;2.20;100.00;97684.91;5069435;28;20530;-79
2021/12/06 03:42:46;;;;;;;10.37;3.83;;;1.70;99.90;;;2.20;100.00;97684.09;5064393;28;20488;-79
2021/12/06 03:45:15;;;;;;;24.60;5.63;;;1.70;99.90;;;2.21;100.00;97691.69;5061957;28;20456;-79
2021/12/06 03:47:44;;;;;;;30.30;4.93;;;1.60;99.90;;;2.21;100.00;97693.47;5065285;28;20464;-79
2021/12/06 03:50:13;;;;;;;17.00;4.03;;;1.50;99.90;;;2.21;100.00;97696.84;5068797;28;20467;-79
2021/12/06 03:52:42;;;;;;;9.20;4.37;;;1.60;99.90;;;2.21;100.00;97690.88;5066192;28;20491;-80
2021/12/06 03:55:13;;;;;;;25.63;4.47;;;1.70;99.90;;;2.19;100.00;97691.00;5060193;28;20462;-80
2021/12/06 03:57:43;;;;;;;37.90;5.13;;;1.50;99.90;;;2.13;100.00;97686.44;5065617;28;20535;-80
2021/12/06 04:00:14;;;;;;;13.97;4.33;;;1.40;99.90;;;2.13;100.00;97704.47;5056045;28;20579;-80
2021/12/06 04:02:44;;;;;;;19.17;6.00;;;1.50;99.90;;;2.14;100.00;97710.47;5065570;28;20460;-80
2021/12/06 04:05:14;;;;;;;30.77;6.77;;;1.40;99.90;;;2.12;100.00;97712.38;5070554;28;20534;-80
2021/12/06 04:07:43;;;;;;;29.57;5.37;;;1.40;99.90;;;2.10;100.00;97715.09;5071394;28;20813;-80
2021/12/06 04:10:12;;;;;;;15.13;5.53;;;1.40;99.90;;;2.10;100.00;97719.44;5066228;28;20503;-80
2021/12/06 04:12:43;;;;;;;20.57;5.17;;;1.40;99.90;;;2.08;100.00;97719.59;5061787;28;20962;-80
2021/12/06 04:15:14;;;;;;;10.47;4.90;;;1.40;99.90;;;2.02;100.00;97712.41;5060970;28;20464;-80
2021/12/06 04:17:42;;;;;;;11.83;4.63;;;1.40;99.90;;;2.03;100.00;97714.03;5056887;28;20451;-80
2021/12/06 04:20:13;;;;;;;7.20;4.43;;;1.40;99.90;;;2.04;100.00;97715.66;5067305;28;20479;-80
2021/12/06 04:22:44;;;;;;;7.20;3.97;;;1.30;99.90;;;2.05;100.00;97711.31;5070598;28;20459;-80
2021/12/06 04:25:15;;;;;;;6.37;4.43;;;1.40;99.90;;;2.07;100.00;97714.56;5066014;28;20466;-79
2021/12/06 04:27:51;;;;;;;8.67;4.80;;;1.50;99.90;;;2.11;100.00;97728.78;5048394;28;20483;-79
2021/12/06 04:30:23;;;;;;;6.43;4.60;;;1.40;99.90;;;2.13;100.00;97732.84;5053967;28;20466;-80
2021/12/06 04:32:55;;;;;;;8.20;4.70;;;1.50;99.90;;;2.15;100.00;97728.38;5065798;28;20567;-80
2021/12/06 04:35:26;;;;;;;6.80;4.50;;;1.40;99.90;;;2.18;100.00;97737.59;5059260;28;20459;-80
2021/12/06 04:37:55;;;;;;;12.70;8.47;;;1.50;99.90;;;2.17;100.00;97731.63;5057329;28;21507;-79
2021/12/06 04:40:23;;;;;;;6.63;4.27;;;1.40;99.90;;;2.17;100.00;97736.78;5057851;28;20532;-80
2021/12/06 04:42:53;;;;;;;4.93;3.70;;;1.40;99.90;;;2.16;100.00;97744.63;5067862;28;20905;-78
2021/12/06 04:45:23;;;;;;;4.30;3.00;;;1.50;99.90;;;2.15;100.00;97759.31;5050703;28;20545;-79
2021/12/06 04:47:54;;;;;;;6.70;3.60;;;1.40;99.90;;;2.14;100.00;97749.94;5058892;28;20460;-79
2021/12/06 04:50:26;;;;;;;3.33;3.00;;;1.40;99.90;;;2.17;100.00;97754.00;5056317;28;20468;-78
2021/12/06 04:52:58;;;;;;;7.37;3.20;;;1.40;99.90;;;2.15;100.00;97743.03;5057553;28;20445;-79
2021/12/06 04:55:35;;;;;;;5.57;4.13;;;1.30;99.90;;;2.10;100.00;97750.38;5059708;28;20474;-78
2021/12/06 04:58:07;;;;;;;4.83;3.40;;;1.30;99.90;;;2.12;100.00;97745.91;5063896;28;20941;-79
2021/12/06 05:00:42;;;;;;;4.23;3.47;;;1.40;99.90;;;2.11;100.00;97747.66;5063170;28;20861;-78
2021/12/06 05:03:11;;;;;;;3.60;2.90;;;1.40;99.90;;;2.14;100.00;97741.41;5061923;28;20564;-79
2021/12/06 05:05:44;;;;;;;4.50;3.40;;;1.40;99.90;;;2.09;100.00;97752.13;5066098;28;20474;-78
2021/12/06 05:08:17;;;;;;;5.07;3.57;;;1.30;99.90;;;2.08;100.00;97745.38;5068945;28;20493;-78
2021/12/06 05:10:47;;;;;;;21.70;8.60;;;1.20;99.90;;;2.09;100.00;97751.31;5062410;28;21063;-78
2021/12/06 05:13:18;;;;;;;6.57;4.13;;;1.30;99.90;;;2.10;100.00;97751.19;5057149;28;20511;-78
2021/12/06 05:15:47;;;;;;;4.17;3.33;;;1.30;99.90;;;2.09;100.00;97754.72;5053715;28;20489;-79
2021/12/06 05:18:15;;;;;;;4.17;2.87;;;1.20;99.90;;;2.08;100.00;97758.25;5063104;28;20515;-78
2021/12/06 05:20:44;;;;;;;4.50;3.47;;;1.30;99.90;;;2.09;100.00;97772.75;5059877;28;20470;-79
2021/12/06 05:23:13;;;;;;;5.10;3.37;;;1.30;99.90;;;2.10;100.00;97776.97;5057365;28;20449;-79
2021/12/06 05:25:42;;;;;;;7.17;3.73;;;1.30;99.90;;;2.08;100.00;97789.22;5060632;28;20959;-78
2021/12/06 05:28:12;;;;;;;7.23;4.40;;;1.30;99.90;;;2.07;100.00;97782.41;5060559;28;20529;-78
2021/12/06 05:30:44;;;;;;;8.70;3.60;;;1.30;99.90;;;2.01;100.00;97793.28;5059381;28;20464;-78
2021/12/06 05:33:18;;;;;;;6.10;3.90;;;1.20;99.90;;;1.93;100.00;97795.75;5062094;28;20478;-78
2021/12/06 05:35:50;;;;;;;5.10;3.50;;;1.00;99.90;;;1.86;100.00;97794.66;5061760;28;20448;-79
2021/12/06 05:38:19;;;;;;;7.60;4.93;;;0.90;99.90;;;1.88;100.00;97797.91;5063936;28;20501;-78
2021/12/06 05:40:48;;;;;;;9.30;4.83;;;1.00;99.90;;;1.88;100.00;97806.47;5065576;28;20459;-78
2021/12/06 05:43:16;;;;;;;8.80;4.93;;;1.00;99.90;;;1.87;100.00;97814.34;5064948;28;20481;-79
2021/12/06 05:45:49;;;;;;;6.20;4.03;;;1.00;99.90;;;1.88;100.00;97818.53;5067277;28;20452;-78
2021/12/06 05:48:18;;;;;;;4.80;3.90;;;1.10;99.90;;;1.90;100.00;97819.22;5062539;28;20506;-78
2021/12/06 05:50:52;;;;;;;5.30;4.17;;;1.10;99.90;;;1.89;100.00;97817.59;5061239;28;20452;-79
2021/12/06 05:53:21;;;;;;;6.40;3.90;;;1.10;99.90;;;1.89;100.00;97830.47;5063508;28;20462;-77
2021/12/06 05:55:50;;;;;;;10.93;4.00;;;1.10;99.90;;;1.85;100.00;97823.97;5065357;28;20454;-80
2021/12/06 05:58:26;;;;;;;6.10;3.90;;;1.00;99.90;;;1.81;100.00;97833.75;5063501;28;20455;-76
2021/12/06 06:00:57;;;;;;;5.83;4.10;;;0.90;99.90;;;1.77;100.00;97826.44;5067877;28;20463;-76
2021/12/06 06:03:27;;;;;;;4.73;3.63;;;0.90;99.90;;;1.78;100.00;97830.63;5064853;28;20973;-76
2021/12/06 06:05:57;;;;;;;4.67;4.10;;;0.90;99.90;;;1.77;100.00;97837.53;5068666;28;20492;-76
2021/12/06 06:08:26;;;;;;;4.63;3.73;;;0.90;99.90;;;1.80;100.00;97847.59;5065666;28;20855;-76
2021/12/06 06:10:55;;;;;;;6.10;4.47;;;1.00;99.90;;;1.79;100.00;97851.13;5068793;28;20505;-77
2021/12/06 06:13:24;;;;;;;5.90;4.17;;;0.90;99.90;;;1.82;100.00;97861.16;5066420;28;20444;-76
2021/12/06 06:15:55;;;;;;;8.77;4.00;;;1.00;99.90;;;1.82;100.00;97866.31;5069675;28;20507;-77
2021/12/06 06:18:25;;;;;;;5.73;3.80;;;0.90;99.90;;;1.82;100.00;97873.22;5065352;28;20515;-77
2021/12/06 06:20:56;;;;;;;6.57;4.27;;;0.90;99.90;;;1.82;100.00;97875.78;5070253;28;20791;-76
2021/12/06 06:23:26;;;;;;;6.73;4.33;;;0.90;99.90;;;1.79;100.00;97883.81;5066707;28;20479;-77
2021/12/06 06:25:56;;;;;;;6.37;4.00;;;0.90;99.90;;;1.74;100.00;97878.22;5070069;28;20457;-77
2021/12/06 06:28:24;;;;;;;5.80;3.60;;;0.90;99.90;;;1.65;100.00;97879.06;5070272;28;20499;-77
2021/12/06 06:30:53;;;;;;;9.77;4.70;;;0.80;99.90;;;1.60;100.00;97881.25;5067493;28;20438;-77
2021/12/06 06:33:22;;;;;;;8.03;4.67;;;0.70;99.90;;;1.61;100.00;97893.16;5067734;28;20448;-76
2021/12/06 06:35:52;;;;;;;5.40;3.97;;;0.90;99.90;;;1.53;100.00;97894.63;5067487;28;20497;-80
2021/12/06 06:38:22;;;;;;;5.63;4.10;;;0.70;99.90;;;1.53;100.00;97902.38;5069961;28;20514;-77
2021/12/06 06:40:51;;;;;;;5.20;4.10;;;0.70;99.90;;;1.58;100.00;97908.88;5066338;28;20475;-76
2021/12/06 06:43:20;;;;;;;6.47;4.27;;;0.70;99.90;;;1.54;100.00;97908.34;5070090;28;20844;-76
2021/12/06 06:45:49;;;;;;;6.97;4.37;;;0.70;99.90;;;1.51;100.00;97906.84;5065805;28;20449;-76
2021/12/06 06:48:17;;;;;;;10.90;4.20;;;0.70;99.90;;;1.46;100.00;97900.44;5072604;28;20452;-77
2021/12/06 06:50:46;;;;;;;8.00;4.50;;;0.70;99.90;;;1.43;100.00;97905.88;5073760;28;20439;-77
2021/12/06 06:53:16;;;;;;;25.97;4.10;;;0.60;99.90;;;1.42;100.00;97915.38;5069498;28;20514;-77
2021/12/06 06:55:45;;;;;;;10.60;4.70;;;0.60;99.90;;;1.42;100.00;97909.44;5073916;28;20541;-76
2021/12/06 06:58:16;;;;;;;34.67;6.20;;;0.60;99.90;;;1.44;100.00;97913.47;5071219;28;20456;-77
2021/12/06 07:00:45;;;;;;;29.60;5.03;;;0.60;99.90;;;1.38;100.00;97916.59;5072650;28;20450;-76
2021/12/06 07:03:13;;;;;;;36.97;6.63;;;0.50;99.90;;;1.40;100.00;97919.84;5073298;28;20449;-77
2021/12/06 07:05:43;;;;;;;49.20;5.30;;;0.50;99.90;;;1.39;100.00;97923.34;5073106;28;20501;-77
2021/12/06 07:08:11;;;;;;;33.47;5.67;;;0.50;99.90;;;1.37;100.00;97922.69;5073176;28;20511;-76
2021/12/06 07:10:41;;;;;;;27.97;6.10;;;0.50;99.90;;;1.41;100.00;97934.34;5070594;28;21166;-77
2021/12/06 07:13:11;;;;;;;24.83;5.33;;;0.60;99.90;;;1.40;100.00;97932.72;5073091;28;20465;-77
2021/12/06 07:15:40;;;;;;;80.50;6.40;;;0.60;99.90;;;1.41;100.00;97936.13;5072715;28;20489;-77
2021/12/06 07:18:09;;;;;;;27.67;5.33;;;0.60;99.90;;;1.40;100.00;97945.59;5069477;28;20504;-77
2021/12/06 07:20:37;;;;;;;42.50;5.93;;;0.50;99.90;;;1.32;100.00;97950.59;5071119;28;20529;-76
2021/12/06 07:23:06;;;;;;;43.03;7.13;;;0.50;99.90;;;1.22;100.00;97949.75;5074842;28;20526;-76
2021/12/06 07:25:35;;;;;;;33.00;6.60;;;0.40;99.90;;;1.24;100.00;97958.19;5072255;28;20950;-76
2021/12/06 07:28:07;;;;;;;64.57;6.53;;;0.40;99.90;;;1.23;100.00;97961.69;5069633;28;20482;-77
2021/12/06 07:30:36;;;;;;;33.93;5.70;;;0.40;99.90;;;1.23;100.00;97974.56;5077338;28;20956;-77
2021/12/06 07:33:06;;;;;;;47.23;5.60;;;0.40;99.90;;;1.12;100.00;97969.50;5072878;28;20472;-77
2021/12/06 07:35:35;;;;;;;7.07;4.50;;;0.30;99.90;;;1.13;100.00;97976.28;5072575;28;20554;-77
2021/12/06 07:38:07;;;;;;;7.93;5.33;;;0.30;99.90;;;1.13;100.00;97976.28;5072509;28;20936;-77
2021/12/06 07:40:37;;;;;;;9.00;5.07;;;0.30;99.90;;;1.10;100.00;97976.56;5069987;28;20471;-76
2021/12/06 07:43:07;;;;;;;7.60;4.80;;;0.30;99.90;;;1.11;100.00;97978.16;5071711;28;20524;-77
2021/12/06 07:45:35;;;;;;;9.00;5.00;;;0.30;99.90;;;1.15;100.00;97971.00;5070038;28;20786;-77
2021/12/06 07:48:06;;;;;;;6.17;4.50;;;0.30;99.90;;;1.19;100.00;97969.78;5072489;28;20508;-76
2021/12/06 07:50:34;;;;;;;6.63;4.07;;;0.40;99.90;;;1.14;100.00;97972.78;5068167;28;20451;-77
2021/12/06 07:53:03;;;;;;;7.47;4.43;;;0.30;99.90;;;1.24;100.00;97970.22;5066716;28;20436;-77
2021/12/06 07:55:34;;;;;;;6.20;4.10;;;0.40;99.90;;;1.23;100.00;97977.13;5071348;28;20480;-76
2021/12/06 07:58:04;;;;;;;8.90;4.67;;;0.40;99.90;;;1.24;100.00;97972.81;5072296;28;20454;-76
2021/12/06 08:00:38;;;;;;;7.70;4.30;;;0.40;99.90;;;1.27;100.00;97977.69;5068695;28;20837;-77
2021/12/06 08:03:08;;;;;;;7.67;4.80;;;0.40;99.90;;;1.28;100.00;97979.34;5069802;28;20514;-77
2021/12/06 08:05:40;;;;;;;16.37;5.00;;;0.40;99.90;;;1.34;100.00;97978.81;5072796;28;20439;-76
2021/12/06 08:08:13;;;;;;;9.30;4.50;;;0.50;99.90;;;1.33;100.00;97975.41;5072168;28;20445;-77
2021/12/06 08:10:45;;;;;;;8.97;4.70;;;0.50;99.90;;;1.37;100.00;97979.34;5076202;28;20448;-77
2021/12/06 08:13:17;;;;;;;8.07;5.43;;;0.60;99.90;;;1.40;100.00;97971.34;5071141;28;20875;-77
2021/12/06 08:15:50;;;;;;;13.60;5.27;;;0.60;99.90;;;1.43;100.00;97968.50;5066652;28;20492;-77
2021/12/06 08:18:18;;;;;;;18.13;4.50;;;0.70;99.90;;;1.45;100.00;97961.50;5066109;28;20481;-77
2021/12/06 08:20:47;;;;;;;19.43;5.30;;;0.70;99.90;;;1.45;100.00;97956.34;5067784;28;20510;-77
2021/12/06 08:23:17;;;;;;;15.57;4.87;;;0.70;99.90;;;1.49;100.00;97962.03;5077900;28;20509;-77
2021/12/06 08:25:49;;;;;;;8.30;4.47;;;0.70;99.90;;;1.50;100.00;97959.31;5070055;28;20854;-77
2021/12/06 08:28:20;;;;;;;19.90;4.80;;;0.70;99.90;;;1.55;100.00;97971.81;5070286;28;20501;-77
2021/12/06 08:30:50;;;;;;;11.90;5.20;;;0.80;99.90;;;1.50;100.00;97979.09;5071788;28;21169;-77
2021/12/06 08:33:21;;;;;;;9.17;5.57;;;0.70;99.90;;;1.46;100.00;97977.72;5071701;28;20494;-77
2021/12/06 08:35:53;;;;;;;11.93;5.40;;;0.70;99.90;;;1.45;100.00;97982.09;5073509;28;20496;-77
2021/12/06 08:38:26;;;;;;;6.83;4.33;;;0.60;99.90;;;1.44;100.00;97988.19;5072453;28;20548;-77
2021/12/06 08:40:58;;;;;;;7.00;4.30;;;0.60;99.90;;;1.44;100.00;97980.47;5066949;28;20454;-77
2021/12/06 08:43:27;;;;;;;6.87;4.30;;;0.60;99.90;;;1.50;100.00;97985.06;5071197;28;20474;-77
2021/12/06 08:46:02;;;;;;;5.90;4.10;;;0.80;99.90;;;1.56;100.00;97982.94;5071483;28;20449;-76
2021/12/06 08:48:35;;;;;;;7.07;4.00;;;0.80;99.90;;;1.57;100.00;97981.97;5069309;28;20509;-77
2021/12/06 08:51:09;;;;;;;7.50;4.63;;;0.80;99.90;;;1.62;100.00;97980.63;5071172;28;20450;-77
2021/12/06 08:53:39;;;;;;;6.43;3.70;;;0.90;99.90;;;1.69;100.00;97983.50;5071127;28;20448;-77
2021/12/06 08:56:09;;;;;;;6.03;4.00;;;1.10;99.90;;;1.72;100.00;97991.78;5070094;28;20480;-77
2021/12/06 08:58:38;;;;;;;8.40;4.30;;;1.10;99.90;;;1.76;100.00;97992.31;5070122;28;20504;-77
2021/12/06 09:01:10;;;;;;;5.23;3.50;;;1.10;99.90;;;1.79;100.00;97995.44;5070430;28;20454;-77
2021/12/06 09:03:59;;;;;;;4.63;3.47;;;1.00;99.90;;;1.77;100.00;97997.31;5071146;28;20442;-77
2021/12/06 09:06:28;;;;;;;4.03;3.27;;;1.00;99.90;;;1.78;100.00;97998.97;5071196;28;20476;-77
2021/12/06 09:08:57;;;;;;;8.60;3.40;;;1.00;99.90;;;1.80;100.00;97994.50;5066139;28;20457;-77
2021/12/06 09:11:25;;;;;;;4.80;3.47;;;1.00;99.90;;;1.81;100.00;97997.88;5072039;28;20926;-76
2021/12/06 09:13:54;;;;;;;5.23;3.23;;;1.00;99.90;;;1.84;100.00;98000.22;5074234;28;20469;-77
2021/12/06 09:16:24;;;;;;;4.37;2.80;;;1.00;99.90;;;1.85;100.00;97999.25;5070716;28;21032;-77
2021/12/06 09:18:53;;;;;;;5.50;3.90;;;1.00;99.90;;;1.90;100.00;98010.81;5065405;28;20518;-76
2021/12/06 09:21:22;;;;;;;9.10;4.10;;;1.10;99.90;;;1.90;100.00;97997.91;5070951;28;20450;-77
2021/12/06 09:23:52;;;;;;;7.13;4.60;;;1.10;99.90;;;1.92;100.00;97997.75;5070161;28;20454;-77
2021/12/06 09:26:21;;;;;;;6.50;4.60;;;1.10;99.90;;;1.94;100.00;97995.88;5069393;28;20447;-77
2021/12/06 09:28:50;;;;;;;6.60;4.27;;;1.10;99.90;;;1.99;100.00;98002.25;5070540;28;20521;-77
2021/12/06 09:31:19;;;;;;;7.33;4.80;;;1.20;99.90;;;2.03;100.00;97995.06;5070489;28;20537;-76
2021/12/06 09:33:50;;;;;;;7.43;4.50;;;1.30;99.90;;;2.03;100.00;97990.72;5069966;28;20470;-77
2021/12/06 09:36:20;;;;;;;6.80;3.93;;;1.30;99.90;;;2.03;100.00;97995.06;5065747;28;20939;-76
2021/12/06 09:38:49;;;;;;;4.70;3.67;;;1.40;99.90;;;2.07;100.00;97991.28;5070719;28;20880;-77
2021/12/06 09:41:23;;;;;;;7.90;4.20;;;1.30;99.90;;;2.11;100.00;98000.38;5066857;28;20663;-77
2021/12/06 09:43:58;;;;;;;4.73;3.70;;;1.30;99.90;;;2.11;100.00;98007.28;5064488;28;20493;-76
2021/12/06 09:46:28;;;;;;;4.53;3.70;;;1.30;99.90;;;2.16;100.00;98008.50;5065482;28;20841;-77
2021/12/06 09:48:59;;;;;;;5.50;4.13;;;1.40;99.90;;;2.19;100.00;98013.38;5070669;28;20444;-77
2021/12/06 09:51:28;;;;;;;5.60;4.20;;;1.40;99.90;;;2.16;100.00;98010.25;5070467;28;20447;-77
2021/12/06 09:53:58;;;;;;;7.57;4.23;;;1.40;99.90;;;2.23;100.00;98009.59;5070484;28;20528;-77
2021/12/06 09:56:33;;;;;;;8.10;5.07;;;1.40;99.90;;;2.25;100.00;98012.88;5070277;28;20918;-77
2021/12/06 09:59:09;;;;;;;8.33;4.27;;;1.40;99.90;;;2.26;100.00;98011.88;5065283;28;20840;-77
2021/12/06 10:01:43;;;;;;;6.43;3.63;;;1.40;99.90;;;2.26;100.00;98009.31;5063261;28;20453;-77
2021/12/06 10:04:15;;;;;;;4.70;3.63;;;1.60;99.90;;;2.31;100.00;98012.31;5066457;28;20524;-77
2021/12/06 10:06:46;;;;;;;5.40;4.03;;;1.60;99.90;;;2.36;100.00;98010.13;5070610;28;20451;-77
2021/12/06 10:09:19;;;;;;;8.17;3.87;;;1.60;99.90;;;2.41;100.00;98007.97;5070250;28;20447;-77
2021/12/06 10:11:50;;;;;;;4.53;3.43;;;1.60;99.90;;;2.47;100.00;98004.81;5070155;28;20536;-77
2021/12/06 10:14:19;;;;;;;4.53;3.47;;;1.70;99.90;;;2.51;100.00;97998.44;5066961;28;20559;-77
2021/12/06 10:16:48;;;;;;;5.37;3.80;;;1.70;99.90;;;2.53;100.00;97990.56;5065507;28;20499;-77
2021/12/06 10:19:20;;;;;;;5.40;3.43;;;1.80;99.90;;;2.58;100.00;97992.72;5064821;28;20547;-77
2021/12/06 10:21:49;;;;;;;5.57;3.93;;;1.80;99.90;;;2.56;100.00;97994.63;5074240;28;20478;-77
2021/12/06 10:24:22;;;;;;;7.10;4.23;;;1.80;99.90;;;2.61;100.00;97992.44;5074192;28;20448;-77
2021/12/06 10:27:03;;;;;;;6.30;3.90;;;1.90;99.90;;;2.65;100.00;97991.22;5080405;28;20513;-77
2021/12/06 10:29:40;;;;;;;3.93;3.50;;;1.90;99.90;;;2.57;100.00;97985.94;5072489;28;20537;-77
2021/12/06 10:32:15;;;;;;;4.77;3.70;;;1.80;99.90;;;2.65;100.00;97988.63;5070328;28;20516;-77
2021/12/06 10:34:51;;;;;;;4.73;3.70;;;1.90;99.90;;;2.69;100.00;97979.66;5067212;28;20494;-77
2021/12/06 10:37:35;;;;;;;5.40;3.90;;;1.90;99.90;;;2.71;100.00;97972.63;5073385;28;20503;-77
2021/12/06 10:40:09;;;;;;;7.60;3.60;;;1.90;99.90;;;2.75;100.00;97971.34;5070668;28;20445;-77
2021/12/06 10:42:41;;;;;;;5.13;3.17;;;2.00;99.90;;;2.74;100.00;97978.28;5073542;28;21056;-77
2021/12/06 10:45:16;;;;;;;6.00;4.30;;;2.00;99.90;;;2.71;100.00;97968.25;5073213;28;20474;-77
2021/12/06 10:48:05;;;;;;;5.33;3.13;;;1.90;99.90;;;2.78;100.00;97973.66;5073676;28;20444;-77
2021/12/06 10:50:37;;;;;;;3.87;3.47;;;2.10;99.90;;;2.79;100.00;97975.28;5067347;28;20517;-77
2021/12/06 10:53:06;;;;;;;4.00;2.97;;;2.00;99.90;;;2.82;100.00;97975.81;5071636;28;20452;-77